createdAt,value
2022-12-14T00:01:20.649Z,-3.60
2022-12-14T00:03:50.176Z,-3.50
2022-12-14T00:06:26.528Z,-3.50
2022-12-14T00:08:57.905Z,-3.50
2022-12-14T00:11:30.405Z,-3.60
2022-12-14T00:14:01.599Z,-3.50
2022-12-14T00:16:35.298Z,-3.60
2022-12-14T00:19:06.091Z,-3.60
2022-12-14T00:21:36.499Z,-3.50
2022-12-14T00:24:06.961Z,-3.50
2022-12-14T00:26:43.515Z,-3.50
2022-12-14T00:29:14.413Z,-3.60
2022-12-14T00:31:43.392Z,-3.50
2022-12-14T00:34:19.542Z,-3.60
2022-12-14T00:36:50.044Z,-3.60
2022-12-14T00:39:19.257Z,-3.60
2022-12-14T00:41:52.180Z,-3.50
2022-12-14T00:44:22.860Z,-3.60
2022-12-14T00:46:53.385Z,-3.60
2022-12-14T00:49:22.366Z,-3.60
2022-12-14T00:51:54.111Z,-3.60
2022-12-14T00:54:23.244Z,-3.60
2022-12-14T00:56:52.129Z,-3.60
2022-12-14T00:59:27.321Z,-3.60
2022-12-14T01:01:58.855Z,-3.60
2022-12-14T01:04:29.793Z,-3.60
2022-12-14T01:07:02.925Z,-3.60
2022-12-14T01:09:44.749Z,-3.70
2022-12-14T01:12:16.629Z,-3.70
2022-12-14T01:14:46.595Z,-3.70
2022-12-14T01:17:15.849Z,-3.70
2022-12-14T01:19:45.517Z,-3.70
2022-12-14T01:22:19.595Z,-3.80
2022-12-14T01:24:48.951Z,-3.90
2022-12-14T01:27:18.045Z,-3.90
2022-12-14T01:29:47.343Z,-4.00
2022-12-14T01:32:17.803Z,-4.00
2022-12-14T01:34:46.750Z,-4.00
2022-12-14T01:37:15.739Z,-4.00
2022-12-14T01:39:46.388Z,-4.10
2022-12-14T01:42:16.735Z,-4.10
2022-12-14T01:44:56.415Z,-4.20
2022-12-14T01:47:30.115Z,-4.30
2022-12-14T01:50:04.831Z,-4.30
2022-12-14T01:52:40.428Z,-4.40
2022-12-14T01:55:14.779Z,-4.40
2022-12-14T01:57:49.452Z,-4.50
2022-12-14T02:00:18.618Z,-4.50
2022-12-14T02:02:52.697Z,-4.60
2022-12-14T02:05:26.861Z,-4.70
2022-12-14T02:07:57.984Z,-4.70
2022-12-14T02:10:30.970Z,-4.70
2022-12-14T02:13:06.294Z,-4.70
2022-12-14T02:15:40.168Z,-4.70
2022-12-14T02:18:16.391Z,-4.70
2022-12-14T02:21:07.310Z,-4.80
2022-12-14T02:24:29.775Z,-4.80
2022-12-14T02:27:11.662Z,-4.90
2022-12-14T02:30:06.602Z,-4.80
2022-12-14T02:33:02.520Z,-4.80
2022-12-14T02:35:45.364Z,-4.70
2022-12-14T02:38:26.820Z,-4.80
2022-12-14T02:41:06.091Z,-4.90
2022-12-14T02:43:45.705Z,-4.90
2022-12-14T02:46:26.073Z,-4.90
2022-12-14T02:49:00.994Z,-4.90
2022-12-14T02:51:38.943Z,-4.90
2022-12-14T02:54:14.965Z,-4.90
2022-12-14T02:56:49.637Z,-4.90
2022-12-14T02:59:21.997Z,-4.90
2022-12-14T03:01:57.387Z,-4.90
2022-12-14T03:04:28.875Z,-4.90
2022-12-14T03:07:34.301Z,-4.90
2022-12-14T03:10:10.496Z,-5.00
2022-12-14T03:12:43.789Z,-5.00
2022-12-14T03:15:16.928Z,-5.00
2022-12-14T03:17:56.801Z,-5.00
2022-12-14T03:20:27.481Z,-5.10
2022-12-14T03:23:00.249Z,-5.10
2022-12-14T03:25:34.932Z,-5.10
2022-12-14T03:28:10.937Z,-5.10
2022-12-14T03:31:00.034Z,-5.10
2022-12-14T03:33:32.970Z,-5.20
2022-12-14T03:36:08.011Z,-5.20
2022-12-14T03:38:40.957Z,-5.20
2022-12-14T03:41:21.242Z,-5.30
2022-12-14T03:44:05.208Z,-5.30
2022-12-14T03:46:42.122Z,-5.20
2022-12-14T03:49:18.193Z,-5.30
2022-12-14T03:51:59.605Z,-5.30
2022-12-14T03:54:45.233Z,-5.30
2022-12-14T03:57:21.953Z,-5.40
2022-12-14T03:59:59.651Z,-5.40
2022-12-14T04:02:40.689Z,-5.40
2022-12-14T04:05:17.936Z,-5.40
2022-12-14T04:07:56.979Z,-5.40
2022-12-14T04:10:47.927Z,-5.40
2022-12-14T04:13:40.476Z,-5.50
2022-12-14T04:16:32.594Z,-5.50
2022-12-14T04:19:09.048Z,-5.60
2022-12-14T04:21:46.357Z,-5.60
2022-12-14T04:24:37.982Z,-5.60
2022-12-14T04:27:16.549Z,-5.70
2022-12-14T04:29:57.448Z,-5.80
2022-12-14T04:32:33.300Z,-5.80
2022-12-14T04:35:08.371Z,-5.80
2022-12-14T04:37:43.132Z,-5.80
2022-12-14T04:40:16.090Z,-5.80
2022-12-14T04:42:54.182Z,-5.70
2022-12-14T04:45:31.812Z,-5.70
2022-12-14T04:48:12.250Z,-5.70
2022-12-14T04:50:47.002Z,-5.70
2022-12-14T04:53:23.479Z,-5.80
2022-12-14T04:56:01.203Z,-5.80
2022-12-14T04:58:34.165Z,-5.80
2022-12-14T05:01:24.866Z,-5.80
2022-12-14T05:04:06.063Z,-5.90
2022-12-14T05:06:46.113Z,-5.90
2022-12-14T05:09:30.182Z,-5.90
2022-12-14T05:12:07.032Z,-5.90
2022-12-14T05:14:42.608Z,-5.90
2022-12-14T05:17:30.329Z,-5.90
2022-12-14T05:20:19.078Z,-5.90
2022-12-14T05:22:49.892Z,-5.90
2022-12-14T05:25:20.297Z,-5.90
2022-12-14T05:27:49.782Z,-6.00
2022-12-14T05:30:19.196Z,-6.00
2022-12-14T05:32:48.257Z,-6.00
2022-12-14T05:35:17.448Z,-6.10
2022-12-14T05:37:46.701Z,-6.10
2022-12-14T05:40:20.285Z,-6.00
2022-12-14T05:42:55.422Z,-6.10
2022-12-14T05:45:25.813Z,-6.10
2022-12-14T05:47:55.582Z,-6.10
2022-12-14T05:50:28.890Z,-6.20
2022-12-14T05:52:58.636Z,-6.20
2022-12-14T05:55:32.268Z,-6.20
2022-12-14T05:58:03.744Z,-6.20
2022-12-14T06:00:36.417Z,-6.20
2022-12-14T06:03:08.607Z,-6.30
2022-12-14T06:05:45.986Z,-6.30
2022-12-14T06:08:15.282Z,-6.30
2022-12-14T06:10:45.577Z,-6.30
2022-12-14T06:13:18.445Z,-6.30
2022-12-14T06:15:47.412Z,-6.40
2022-12-14T06:18:16.214Z,-6.40
2022-12-14T06:20:45.066Z,-6.40
2022-12-14T06:23:15.211Z,-6.30
2022-12-14T06:25:45.710Z,-6.40
2022-12-14T06:28:16.782Z,-6.50
2022-12-14T06:30:51.858Z,-6.50
2022-12-14T06:33:21.789Z,-6.50
2022-12-14T06:35:51.111Z,-6.50
2022-12-14T06:38:20.637Z,-6.50
2022-12-14T06:40:51.476Z,-6.50
2022-12-14T06:43:20.794Z,-6.50
2022-12-14T06:45:50.108Z,-6.50
2022-12-14T06:48:19.111Z,-6.60
2022-12-14T06:50:48.205Z,-6.60
2022-12-14T06:53:17.313Z,-6.70
2022-12-14T06:55:50.059Z,-6.70
2022-12-14T06:58:21.160Z,-6.70
2022-12-14T07:00:50.130Z,-6.70
2022-12-14T07:03:19.341Z,-6.80
2022-12-14T07:05:49.220Z,-6.80
2022-12-14T07:08:18.330Z,-6.80
2022-12-14T07:10:47.230Z,-6.80
2022-12-14T07:13:16.817Z,-6.70
2022-12-14T07:15:53.234Z,-6.60
2022-12-14T07:18:22.533Z,-6.70
2022-12-14T07:21:00.748Z,-6.70
2022-12-14T07:23:32.670Z,-6.80
2022-12-14T07:26:09.189Z,-6.80
2022-12-14T07:28:38.594Z,-6.80
2022-12-14T07:31:13.520Z,-6.80
2022-12-14T07:33:43.674Z,-6.90
2022-12-14T07:36:16.111Z,-6.90
2022-12-14T07:38:47.327Z,-6.90
2022-12-14T07:41:22.422Z,-6.90
2022-12-14T07:43:53.839Z,-7.00
2022-12-14T07:46:25.850Z,-7.00
2022-12-14T07:48:57.792Z,-7.00
2022-12-14T07:51:28.839Z,-7.10
2022-12-14T07:53:57.994Z,-7.10
2022-12-14T07:56:28.829Z,-7.00
2022-12-14T07:58:59.157Z,-7.00
2022-12-14T08:01:31.765Z,-7.00
2022-12-14T08:04:02.414Z,-7.00
2022-12-14T08:06:32.000Z,-7.00
2022-12-14T08:09:01.669Z,-7.10
2022-12-14T08:11:31.056Z,-7.10
2022-12-14T08:14:01.883Z,-7.10
2022-12-14T08:16:33.268Z,-7.00
2022-12-14T08:19:03.464Z,-7.00
2022-12-14T08:21:40.377Z,-7.00
2022-12-14T08:24:11.429Z,-7.10
2022-12-14T08:26:41.495Z,-7.00
2022-12-14T08:29:12.737Z,-7.00
2022-12-14T08:31:43.177Z,-7.00
2022-12-14T08:34:12.002Z,-7.00
2022-12-14T08:36:40.665Z,-6.90
2022-12-14T08:39:15.752Z,-6.90
2022-12-14T08:41:44.793Z,-6.80
2022-12-14T08:44:17.021Z,-6.80
2022-12-14T08:46:47.725Z,-6.80
2022-12-14T08:49:16.849Z,-6.80
2022-12-14T08:51:45.548Z,-6.80
2022-12-14T08:54:15.443Z,-6.70
2022-12-14T08:56:44.311Z,-6.60
2022-12-14T08:59:30.308Z,-6.60
2022-12-14T09:02:04.284Z,-6.60
2022-12-14T09:04:33.251Z,-6.50
2022-12-14T09:07:02.055Z,-6.40
2022-12-14T09:09:30.974Z,-6.30
2022-12-14T09:12:03.781Z,-6.20
2022-12-14T09:14:33.316Z,-6.20
2022-12-14T09:17:04.093Z,-6.20
2022-12-14T09:19:33.547Z,-6.20
2022-12-14T09:22:02.719Z,-6.10
2022-12-14T09:24:31.671Z,-6.10
2022-12-14T09:27:01.521Z,-6.00
2022-12-14T09:29:31.162Z,-5.90
2022-12-14T09:32:00.085Z,-5.90
2022-12-14T09:34:30.396Z,-5.80
2022-12-14T09:37:04.552Z,-5.70
2022-12-14T09:39:33.276Z,-5.50
2022-12-14T09:42:14.086Z,-5.40
2022-12-14T09:44:52.901Z,-5.30
2022-12-14T09:47:29.526Z,-5.20
2022-12-14T09:50:03.422Z,-5.10
2022-12-14T09:52:38.301Z,-5.00
2022-12-14T09:55:22.000Z,-4.80
2022-12-14T09:57:57.049Z,-4.80
2022-12-14T10:00:26.962Z,-4.70
2022-12-14T10:03:16.602Z,-4.60
2022-12-14T10:06:10.468Z,-4.60
2022-12-14T10:08:48.195Z,-4.50
2022-12-14T10:11:30.321Z,-4.40
2022-12-14T10:14:15.029Z,-4.30
2022-12-14T10:16:53.033Z,-4.10
2022-12-14T10:19:35.182Z,-4.00
2022-12-14T10:22:13.675Z,-3.90
2022-12-14T10:24:45.505Z,-3.80
2022-12-14T10:28:01.207Z,-3.70
2022-12-14T10:30:23.631Z,-3.60
2022-12-14T10:32:55.444Z,-3.50
2022-12-14T10:35:35.784Z,-3.40
2022-12-14T10:38:08.046Z,-3.30
2022-12-14T10:40:38.070Z,-3.20
2022-12-14T10:43:22.993Z,-3.10
2022-12-14T10:45:59.953Z,-3.10
2022-12-14T10:48:47.767Z,-3.00
2022-12-14T10:51:21.161Z,-2.90
2022-12-14T10:53:56.134Z,-2.90
2022-12-14T10:56:28.630Z,-2.80
2022-12-14T10:59:35.132Z,-2.70
2022-12-14T11:02:11.063Z,-2.50
2022-12-14T11:04:44.794Z,-2.40
2022-12-14T11:07:15.938Z,-2.30
2022-12-14T11:09:46.971Z,-2.30
2022-12-14T11:12:22.971Z,-2.10
2022-12-14T11:14:58.689Z,-2.20
2022-12-14T11:17:37.672Z,-2.10
2022-12-14T11:20:19.197Z,-2.10
2022-12-14T11:22:51.534Z,-2.10
2022-12-14T11:25:48.184Z,-2.00
2022-12-14T11:28:25.714Z,-1.90
2022-12-14T11:30:59.527Z,-1.70
2022-12-14T11:33:34.627Z,-1.70
2022-12-14T11:36:04.302Z,-1.50
2022-12-14T11:38:33.475Z,-1.40
2022-12-14T11:41:11.064Z,-1.40
2022-12-14T11:43:41.401Z,-1.30
2022-12-14T11:46:10.659Z,-1.20
2022-12-14T11:48:50.286Z,-1.10
2022-12-14T11:51:19.129Z,-1.00
2022-12-14T11:54:04.459Z,-1.00
2022-12-14T11:56:39.032Z,-0.90
2022-12-14T11:59:14.597Z,-0.80
2022-12-14T12:01:43.961Z,-0.70
2022-12-14T12:04:17.749Z,-0.60
2022-12-14T12:06:47.077Z,-0.60
2022-12-14T12:09:27.543Z,-0.50
2022-12-14T12:11:58.341Z,-0.40
2022-12-14T12:14:31.350Z,-0.40
2022-12-14T12:17:00.368Z,-0.30
2022-12-14T12:19:35.256Z,-0.20
2022-12-14T12:22:06.285Z,-0.10
2022-12-14T12:25:01.146Z,0.00
2022-12-14T12:27:31.372Z,0.00
2022-12-14T12:30:07.205Z,-0.10
2022-12-14T12:32:41.065Z,0.00
2022-12-14T12:35:18.121Z,0.00
2022-12-14T12:37:50.259Z,0.10
2022-12-14T12:40:27.017Z,0.20
2022-12-14T12:43:20.352Z,0.30
2022-12-14T12:45:59.687Z,0.30
2022-12-14T12:48:34.191Z,0.20
2022-12-14T12:51:07.133Z,0.20
2022-12-14T12:53:44.228Z,0.30
2022-12-14T12:56:18.229Z,0.40
2022-12-14T12:59:08.434Z,0.50
2022-12-14T13:01:42.343Z,0.50
2022-12-14T13:04:17.045Z,0.50
2022-12-14T13:06:54.523Z,0.50
2022-12-14T13:09:36.591Z,0.50
2022-12-14T13:12:08.252Z,0.50
2022-12-14T13:14:42.917Z,0.60
2022-12-14T13:17:29.437Z,0.60
2022-12-14T13:20:00.925Z,0.60
2022-12-14T13:22:32.831Z,0.70
2022-12-14T13:25:07.447Z,0.90
2022-12-14T13:28:00.573Z,0.90
2022-12-14T13:30:47.843Z,0.90
2022-12-14T13:33:43.189Z,0.80
2022-12-14T13:36:45.839Z,0.70
2022-12-14T13:39:50.998Z,0.60
2022-12-14T13:42:27.415Z,0.70
2022-12-14T13:44:59.814Z,0.70
2022-12-14T13:47:38.005Z,0.70
2022-12-14T13:50:35.785Z,0.60
2022-12-14T13:53:16.374Z,0.60
2022-12-14T13:56:03.067Z,0.50
2022-12-14T13:58:39.145Z,0.60
2022-12-14T14:01:17.221Z,0.50
2022-12-14T14:03:53.612Z,0.40
2022-12-14T14:06:38.573Z,0.30
2022-12-14T14:09:59.672Z,0.30
2022-12-14T14:12:38.214Z,0.40
2022-12-14T14:16:27.475Z,0.40
2022-12-14T14:18:50.428Z,0.20
2022-12-14T14:21:38.889Z,0.10
2022-12-14T14:24:25.495Z,-0.10
2022-12-14T14:27:09.902Z,-0.30
2022-12-14T14:29:45.370Z,-0.50
2022-12-14T14:32:42.895Z,-0.70
2022-12-14T14:35:27.901Z,-0.80
2022-12-14T14:38:02.043Z,-1.00
2022-12-14T14:41:13.945Z,-1.10
2022-12-14T14:43:33.484Z,-1.20
2022-12-14T14:46:05.708Z,-1.30
2022-12-14T14:48:42.412Z,-1.40
2022-12-14T14:51:32.472Z,-1.40
2022-12-14T14:55:11.039Z,-1.50
2022-12-14T14:57:37.007Z,-1.70
2022-12-14T15:00:13.669Z,-1.90
2022-12-14T15:02:44.010Z,-2.00
2022-12-14T15:08:19.844Z,-2.30
2022-12-14T15:10:52.244Z,-2.40
2022-12-14T15:13:24.936Z,-2.50
2022-12-14T15:15:56.783Z,-2.50
2022-12-14T15:18:27.633Z,-2.60
2022-12-14T15:21:00.879Z,-2.80
2022-12-14T15:23:34.399Z,-2.80
2022-12-14T15:26:16.329Z,-2.90
2022-12-14T15:28:55.651Z,-3.00
2022-12-14T15:31:30.608Z,-3.00
2022-12-14T15:34:02.976Z,-3.10
2022-12-14T15:36:35.679Z,-3.20
2022-12-14T15:39:04.714Z,-3.30
2022-12-14T15:41:35.082Z,-3.40
2022-12-14T15:44:04.300Z,-3.50
2022-12-14T15:46:35.365Z,-3.60
2022-12-14T15:49:08.318Z,-3.60
2022-12-14T15:51:39.576Z,-3.60
2022-12-14T15:54:15.143Z,-3.60
2022-12-14T15:56:46.778Z,-3.70
2022-12-14T15:59:20.982Z,-3.80
2022-12-14T16:01:56.035Z,-3.90
2022-12-14T16:04:29.371Z,-3.90
2022-12-14T16:07:09.493Z,-4.00
2022-12-14T16:09:43.268Z,-4.00
2022-12-14T16:12:21.505Z,-4.10
2022-12-14T16:14:54.487Z,-4.10
2022-12-14T16:17:27.598Z,-4.20
2022-12-14T16:20:00.683Z,-4.20
2022-12-14T16:22:31.921Z,-4.30
2022-12-14T16:25:19.868Z,-4.40
2022-12-14T16:27:52.960Z,-4.40
2022-12-14T16:30:29.990Z,-4.40
2022-12-14T16:33:17.459Z,-4.50
2022-12-14T16:35:47.524Z,-4.50
2022-12-14T16:38:18.149Z,-4.50
2022-12-14T16:40:56.158Z,-4.60
2022-12-14T16:43:33.532Z,-4.60
2022-12-14T16:46:12.916Z,-4.60
2022-12-14T16:48:44.573Z,-4.70
2022-12-14T16:51:44.892Z,-4.70
2022-12-14T16:54:27.656Z,-4.70
2022-12-14T16:57:02.573Z,-4.70
2022-12-14T16:59:42.969Z,-4.80
2022-12-14T17:02:30.000Z,-4.80
2022-12-14T17:05:01.561Z,-4.90
2022-12-14T17:07:33.066Z,-4.90
2022-12-14T17:10:01.946Z,-4.90
2022-12-14T17:12:31.124Z,-4.90
2022-12-14T17:15:01.682Z,-4.80
2022-12-14T17:17:35.006Z,-4.70
2022-12-14T17:20:09.217Z,-4.80
2022-12-14T17:22:39.848Z,-4.80
2022-12-14T17:25:09.029Z,-4.80
2022-12-14T17:27:37.672Z,-4.90
2022-12-14T17:30:14.719Z,-5.00
2022-12-14T17:32:46.130Z,-5.00
2022-12-14T17:35:19.392Z,-5.00
2022-12-14T17:37:49.340Z,-5.00
2022-12-14T17:40:18.419Z,-5.10
2022-12-14T17:42:53.473Z,-5.10
2022-12-14T17:45:26.153Z,-5.20
2022-12-14T17:47:56.211Z,-5.20
2022-12-14T17:50:26.196Z,-5.20
2022-12-14T17:52:55.152Z,-5.10
2022-12-14T17:55:27.368Z,-5.10
2022-12-14T17:57:57.974Z,-5.00
2022-12-14T18:00:48.670Z,-5.00
2022-12-14T18:03:21.113Z,-5.00
2022-12-14T18:05:51.345Z,-5.00
2022-12-14T18:08:31.181Z,-5.00
2022-12-14T18:11:04.122Z,-4.90
2022-12-14T18:13:36.747Z,-5.00
2022-12-14T18:16:09.766Z,-5.00
2022-12-14T18:18:39.962Z,-5.00
2022-12-14T18:21:21.100Z,-5.00
2022-12-14T18:23:51.512Z,-5.00
2022-12-14T18:26:24.391Z,-5.00
2022-12-14T18:28:55.473Z,-5.00
2022-12-14T18:31:30.265Z,-5.00
2022-12-14T18:33:59.358Z,-5.00
2022-12-14T18:36:28.760Z,-4.90
2022-12-14T18:38:58.409Z,-4.90
2022-12-14T18:41:31.612Z,-5.00
2022-12-14T18:44:01.807Z,-5.00
2022-12-14T18:46:35.624Z,-5.10
2022-12-14T18:49:08.141Z,-5.20
2022-12-14T18:51:37.251Z,-5.30
2022-12-14T18:54:06.580Z,-5.40
2022-12-14T18:56:35.853Z,-5.40
2022-12-14T18:59:05.346Z,-5.50
2022-12-14T19:01:37.867Z,-5.50
2022-12-14T19:04:07.781Z,-5.50
2022-12-14T19:06:46.223Z,-5.50
2022-12-14T19:09:16.134Z,-5.50
2022-12-14T19:11:45.908Z,-5.50
2022-12-14T19:14:17.064Z,-5.50
2022-12-14T19:16:47.633Z,-5.50
2022-12-14T19:19:23.523Z,-5.50
2022-12-14T19:21:56.296Z,-5.60
2022-12-14T19:24:27.979Z,-5.60
2022-12-14T19:26:59.914Z,-5.70
2022-12-14T19:29:37.203Z,-5.70
2022-12-14T19:32:07.939Z,-5.70
2022-12-14T19:34:40.824Z,-5.60
2022-12-14T19:37:09.813Z,-5.70
2022-12-14T19:39:38.721Z,-5.60
2022-12-14T19:42:12.179Z,-5.60
2022-12-14T19:44:41.843Z,-5.60
2022-12-14T19:47:13.086Z,-5.60
2022-12-14T19:49:44.396Z,-5.70
2022-12-14T19:52:17.258Z,-5.60
2022-12-14T19:54:46.027Z,-5.40
2022-12-14T19:57:16.374Z,-5.30
2022-12-14T19:59:45.548Z,-5.10
2022-12-14T20:02:16.893Z,-5.10
2022-12-14T20:04:46.186Z,-4.90
2022-12-14T20:07:15.814Z,-4.80
2022-12-14T20:09:44.745Z,-4.80
2022-12-14T20:12:13.886Z,-4.80
2022-12-14T20:14:43.320Z,-4.70
2022-12-14T20:17:13.141Z,-4.70
2022-12-14T20:19:43.843Z,-4.80
2022-12-14T20:22:15.181Z,-4.90
2022-12-14T20:24:52.181Z,-5.00
2022-12-14T20:27:21.634Z,-5.00
2022-12-14T20:29:51.159Z,-5.00
2022-12-14T20:32:20.369Z,-4.90
2022-12-14T20:34:51.227Z,-4.70
2022-12-14T20:37:20.036Z,-4.50
2022-12-14T20:39:49.257Z,-4.50
2022-12-14T20:42:18.290Z,-4.50
2022-12-14T20:44:49.550Z,-4.40
2022-12-14T20:47:19.273Z,-4.40
2022-12-14T20:49:49.567Z,-4.30
2022-12-14T20:52:18.444Z,-4.20
2022-12-14T20:54:47.306Z,-4.30
2022-12-14T20:57:17.964Z,-4.30
2022-12-14T20:59:46.833Z,-4.20
2022-12-14T21:02:18.436Z,-4.20
2022-12-14T21:04:47.746Z,-4.20
2022-12-14T21:07:24.263Z,-4.20
2022-12-14T21:09:54.819Z,-4.20
2022-12-14T21:12:24.017Z,-4.20
2022-12-14T21:14:54.343Z,-4.20
2022-12-14T21:17:25.166Z,-4.20
2022-12-14T21:19:56.101Z,-4.20
2022-12-14T21:22:28.883Z,-4.10
2022-12-14T21:25:06.371Z,-4.10
2022-12-14T21:27:39.306Z,-4.10
2022-12-14T21:30:10.338Z,-4.10
2022-12-14T21:32:39.804Z,-4.20
2022-12-14T21:35:11.282Z,-4.20
2022-12-14T21:37:41.820Z,-4.10
2022-12-14T21:40:31.888Z,-4.00
2022-12-14T21:42:59.955Z,-4.00
2022-12-14T21:45:28.733Z,-4.00
2022-12-14T21:47:57.592Z,-4.10
2022-12-14T21:50:26.712Z,-4.20
2022-12-14T21:52:57.237Z,-4.20
2022-12-14T21:55:26.067Z,-4.10
2022-12-14T21:58:12.086Z,-4.10
2022-12-14T22:00:40.915Z,-4.00
2022-12-14T22:03:09.813Z,-3.90
2022-12-14T22:05:42.920Z,-3.90
2022-12-14T22:08:13.483Z,-4.00
2022-12-14T22:10:51.933Z,-4.00
2022-12-14T22:13:20.807Z,-4.10
2022-12-14T22:15:50.269Z,-4.00
2022-12-14T22:18:19.399Z,-3.90
2022-12-14T22:20:48.474Z,-4.00
2022-12-14T22:23:18.840Z,-4.10
2022-12-14T22:25:51.118Z,-4.10
2022-12-14T22:28:20.201Z,-4.10
2022-12-14T22:30:49.431Z,-4.10
2022-12-14T22:33:18.930Z,-4.10
2022-12-14T22:35:47.936Z,-4.00
2022-12-14T22:38:18.622Z,-4.00
2022-12-14T22:40:50.291Z,-4.00
2022-12-14T22:43:24.339Z,-4.10
2022-12-14T22:45:56.416Z,-4.10
2022-12-14T22:48:27.256Z,-4.00
2022-12-14T22:51:00.015Z,-4.00
2022-12-14T22:53:31.628Z,-4.00
2022-12-14T22:56:11.812Z,-4.00
2022-12-14T22:58:46.035Z,-4.00
2022-12-14T23:01:20.163Z,-4.00
2022-12-14T23:03:50.527Z,-4.00
2022-12-14T23:06:25.741Z,-4.00
2022-12-14T23:09:13.600Z,-3.90
2022-12-14T23:12:00.937Z,-3.90
2022-12-14T23:14:48.759Z,-3.90
2022-12-14T23:17:35.712Z,-4.00
2022-12-14T23:20:24.448Z,-4.00
2022-12-14T23:23:11.160Z,-4.00
2022-12-14T23:26:00.644Z,-3.90
2022-12-14T23:28:50.569Z,-4.00
2022-12-14T23:31:43.454Z,-4.00
2022-12-14T23:34:30.958Z,-4.10
2022-12-14T23:37:20.491Z,-4.00
2022-12-14T23:40:07.700Z,-4.00
2022-12-14T23:42:55.549Z,-4.00
2022-12-14T23:45:41.680Z,-4.00
2022-12-14T23:48:27.867Z,-4.00
2022-12-14T23:51:18.519Z,-4.00
2022-12-14T23:54:05.114Z,-4.10
2022-12-14T23:56:59.754Z,-4.10
2022-12-14T23:59:49.747Z,-4.00
